createdAt,value
2022-10-02T00:07:21.965Z,11.83916
2022-10-02T00:17:23.763Z,11.58989
2022-10-02T00:27:24.708Z,11.36088
2022-10-02T00:37:26.406Z,11.2535
2022-10-02T00:47:28.556Z,11.13916
2022-10-02T00:57:29.497Z,10.94119
2022-10-02T01:07:30.905Z,10.85219
2022-10-02T01:17:32.443Z,10.80119
2022-10-02T01:27:38.029Z,10.75938
2022-10-02T01:37:41.046Z,10.65644
2022-10-02T01:47:43.043Z,10.51993
2022-10-02T01:57:45.331Z,10.4607
2022-10-02T02:07:47.241Z,10.39735
2022-10-02T02:17:48.892Z,10.31341
2022-10-02T02:27:50.480Z,10.2507
2022-10-02T02:37:52.109Z,10.27857
2022-10-02T02:47:53.356Z,10.2792
2022-10-02T02:57:54.467Z,10.1693
2022-10-02T03:07:56.034Z,10.09043
2022-10-02T03:17:57.113Z,10.02866
2022-10-02T03:27:58.646Z,10.15758
2022-10-02T03:37:59.648Z,10.28237
2022-10-02T03:48:00.894Z,10.10405
2022-10-02T03:58:02.219Z,9.93808
2022-10-02T04:08:03.766Z,9.87314
2022-10-02T04:18:05.693Z,9.73853
2022-10-02T04:28:07.048Z,9.69577
2022-10-02T04:38:08.150Z,9.61817
2022-10-02T04:48:09.417Z,9.65681
2022-10-02T04:58:10.685Z,9.54595
2022-10-02T05:08:12.600Z,9.49053
2022-10-02T05:18:17.749Z,9.37048
2022-10-02T05:28:19.062Z,9.24442
2022-10-02T05:38:20.405Z,9.17727
2022-10-02T05:48:21.374Z,9.12945
2022-10-02T05:58:22.660Z,9.02271
2022-10-02T06:08:23.812Z,8.99578
2022-10-02T06:18:24.914Z,8.96601
2022-10-02T06:28:26.323Z,9.08479
2022-10-02T06:38:27.606Z,9.17981
2022-10-02T06:48:29.131Z,9.1494
2022-10-02T06:58:30.424Z,9.26342
2022-10-02T07:08:31.331Z,9.437
2022-10-02T07:18:32.471Z,9.58143
2022-10-02T07:28:33.660Z,9.76545
2022-10-02T07:38:35.053Z,9.97894
2022-10-02T07:48:36.693Z,10.21934
2022-10-02T07:58:38.934Z,10.53576
2022-10-02T08:08:39.994Z,10.83097
2022-10-02T08:18:41.940Z,11.17083
2022-10-02T08:28:43.410Z,11.50056
2022-10-02T08:38:44.708Z,11.82079
2022-10-02T08:48:45.657Z,12.01401
2022-10-02T08:58:46.953Z,12.20469
2022-10-02T12:40:33.282Z,17.05105
2022-10-02T12:50:34.803Z,15.72065
2022-10-02T13:00:35.901Z,15.70386
2022-10-02T13:10:37.051Z,15.53598
2022-10-02T13:20:38.270Z,16.01144
2022-10-02T13:30:39.384Z,15.784
2022-10-02T13:40:41.077Z,15.87396
2022-10-02T13:50:42.310Z,15.85179
2022-10-02T14:00:43.495Z,16.01207
2022-10-02T14:10:44.682Z,15.95157
2022-10-02T14:20:45.819Z,15.67156
2022-10-02T14:30:46.963Z,15.51286
2022-10-02T14:40:48.105Z,15.27434
2022-10-02T14:50:49.212Z,15.44476
2022-10-02T15:00:50.609Z,15.90913
2022-10-02T15:10:51.898Z,15.53693
2022-10-02T15:20:52.990Z,15.70291
2022-10-02T15:30:54.129Z,15.84039
2022-10-02T15:40:55.238Z,15.62277
2022-10-02T15:50:56.372Z,15.54073
2022-10-02T16:00:57.669Z,15.7593
2022-10-02T16:10:59.050Z,15.59997
2022-10-02T16:21:00.198Z,15.30602
2022-10-02T16:31:01.635Z,15.23253
2022-10-02T16:41:03.313Z,15.08175
2022-10-02T16:51:04.960Z,14.93826
2022-10-02T17:01:06.713Z,14.75201
2022-10-02T17:11:08.506Z,14.52901
2022-10-02T17:21:09.922Z,14.30982
2022-10-02T17:31:11.520Z,14.1242
2022-10-02T17:41:13.049Z,13.78115
2022-10-02T17:51:32.597Z,13.37223
2022-10-02T18:01:40.224Z,12.99751
2022-10-02T18:11:41.566Z,12.708
2022-10-02T18:21:42.707Z,12.39981
2022-10-02T18:31:55.789Z,12.20659
2022-10-02T18:41:58.366Z,11.92975
2022-10-02T18:51:59.513Z,11.80306
2022-10-02T19:02:01.239Z,11.66052
2022-10-02T19:12:02.942Z,11.68428
2022-10-02T19:22:04.684Z,11.63581
2022-10-02T19:32:06.333Z,11.74667
2022-10-02T19:42:07.983Z,11.65038
2022-10-02T19:52:09.507Z,11.47332
2022-10-02T20:02:11.202Z,11.21264
2022-10-02T20:12:12.584Z,23.74834
2022-10-02T20:22:13.674Z,10.73405
2022-10-02T20:32:15.389Z,10.90002
2022-10-02T20:42:16.790Z,10.49269
2022-10-02T20:52:17.963Z,10.6083
2022-10-02T21:02:19.104Z,10.25672
2022-10-02T21:12:20.570Z,10.27002
2022-10-02T21:22:21.717Z,10.23549
2022-10-02T21:32:22.844Z,10.1202
2022-10-02T21:42:23.935Z,10.00618
2022-10-02T21:52:25.019Z,10.15853
2022-10-02T22:02:26.308Z,9.87885
2022-10-02T22:12:27.533Z,9.6907
2022-10-02T22:22:28.683Z,9.76007
2022-10-02T22:32:29.793Z,9.69419
2022-10-02T22:42:31.121Z,9.80473
2022-10-02T22:52:32.295Z,9.61184
2022-10-02T23:02:33.505Z,9.51555
2022-10-02T23:12:36.666Z,9.39139
2022-10-02T23:22:37.960Z,9.38695
2022-10-02T23:32:39.103Z,9.29827
2022-10-02T23:42:40.275Z,9.25456
2022-10-02T23:52:41.577Z,9.24442
